sensor_id;sensor_type;location;lat;lon;timestamp;P1;durP1;ratioP1;P2;durP2;ratioP2
9761;SDS011;4920;49.594;11.022;2024-02-21T00:00:11;13.80;;;4.87;;
9761;SDS011;4920;49.594;11.022;2024-02-21T00:02:40;13.50;;;5.17;;
9761;SDS011;4920;49.594;11.022;2024-02-21T00:05:11;16.43;;;5.27;;
9761;SDS011;4920;49.594;11.022;2024-02-21T00:07:40;14.87;;;5.47;;
9761;SDS011;4920;49.594;11.022;2024-02-21T00:10:09;14.70;;;5.80;;
9761;SDS011;4920;49.594;11.022;2024-02-21T00:12:37;13.30;;;5.37;;
9761;SDS011;4920;49.594;11.022;2024-02-21T00:15:07;15.30;;;5.33;;
9761;SDS011;4920;49.594;11.022;2024-02-21T00:17:36;15.53;;;5.30;;
9761;SDS011;4920;49.594;11.022;2024-02-21T00:20:06;14.27;;;5.47;;
9761;SDS011;4920;49.594;11.022;2024-02-21T00:22:37;15.13;;;5.40;;
9761;SDS011;4920;49.594;11.022;2024-02-21T00:25:06;15.17;;;5.60;;
9761;SDS011;4920;49.594;11.022;2024-02-21T00:27:35;17.47;;;5.30;;
9761;SDS011;4920;49.594;11.022;2024-02-21T00:30:05;14.80;;;5.60;;
9761;SDS011;4920;49.594;11.022;2024-02-21T00:32:34;21.20;;;5.70;;
9761;SDS011;4920;49.594;11.022;2024-02-21T00:35:03;16.27;;;5.43;;
9761;SDS011;4920;49.594;11.022;2024-02-21T00:37:32;15.33;;;5.20;;
9761;SDS011;4920;49.594;11.022;2024-02-21T00:40:03;13.20;;;5.67;;
9761;SDS011;4920;49.594;11.022;2024-02-21T00:42:33;14.80;;;5.53;;
9761;SDS011;4920;49.594;11.022;2024-02-21T00:45:02;16.30;;;5.50;;
9761;SDS011;4920;49.594;11.022;2024-02-21T00:47:31;19.87;;;6.20;;
9761;SDS011;4920;49.594;11.022;2024-02-21T00:50:00;14.37;;;5.60;;
9761;SDS011;4920;49.594;11.022;2024-02-21T00:52:31;19.20;;;5.40;;
9761;SDS011;4920;49.594;11.022;2024-02-21T00:55:00;14.00;;;5.70;;
9761;SDS011;4920;49.594;11.022;2024-02-21T00:57:31;14.07;;;5.17;;
9761;SDS011;4920;49.594;11.022;2024-02-21T01:00:00;16.27;;;5.40;;
9761;SDS011;4920;49.594;11.022;2024-02-21T01:02:29;16.70;;;5.77;;
9761;SDS011;4920;49.594;11.022;2024-02-21T01:04:59;13.33;;;5.50;;
9761;SDS011;4920;49.594;11.022;2024-02-21T01:07:28;11.40;;;5.47;;
9761;SDS011;4920;49.594;11.022;2024-02-21T01:09:57;12.93;;;4.97;;
9761;SDS011;4920;49.594;11.022;2024-02-21T01:12:26;16.67;;;6.03;;
9761;SDS011;4920;49.594;11.022;2024-02-21T01:14:56;11.83;;;5.43;;
9761;SDS011;4920;49.594;11.022;2024-02-21T01:17:25;14.33;;;5.90;;
9761;SDS011;4920;49.594;11.022;2024-02-21T01:19:53;16.03;;;5.50;;
9761;SDS011;4920;49.594;11.022;2024-02-21T01:22:22;13.53;;;5.27;;
9761;SDS011;4920;49.594;11.022;2024-02-21T01:24:51;15.73;;;4.97;;
9761;SDS011;4920;49.594;11.022;2024-02-21T01:27:20;14.97;;;4.93;;
9761;SDS011;4920;49.594;11.022;2024-02-21T01:29:49;14.20;;;5.57;;
9761;SDS011;4920;49.594;11.022;2024-02-21T01:32:19;19.23;;;6.30;;
9761;SDS011;4920;49.594;11.022;2024-02-21T01:34:48;12.93;;;5.77;;
9761;SDS011;4920;49.594;11.022;2024-02-21T01:37:17;11.53;;;5.23;;
9761;SDS011;4920;49.594;11.022;2024-02-21T01:39:46;14.10;;;5.50;;
9761;SDS011;4920;49.594;11.022;2024-02-21T01:42:16;14.00;;;5.53;;
9761;SDS011;4920;49.594;11.022;2024-02-21T01:44:45;16.00;;;5.80;;
9761;SDS011;4920;49.594;11.022;2024-02-21T01:47:14;18.53;;;5.53;;
9761;SDS011;4920;49.594;11.022;2024-02-21T01:49:45;16.83;;;5.30;;
9761;SDS011;4920;49.594;11.022;2024-02-21T01:52:14;13.13;;;4.97;;
9761;SDS011;4920;49.594;11.022;2024-02-21T01:54:44;13.17;;;4.77;;
9761;SDS011;4920;49.594;11.022;2024-02-21T01:57:14;12.63;;;5.10;;
9761;SDS011;4920;49.594;11.022;2024-02-21T01:59:44;13.53;;;5.10;;
9761;SDS011;4920;49.594;11.022;2024-02-21T02:02:13;17.10;;;5.33;;
9761;SDS011;4920;49.594;11.022;2024-02-21T02:04:44;14.23;;;5.30;;
9761;SDS011;4920;49.594;11.022;2024-02-21T02:07:14;16.70;;;5.20;;
9761;SDS011;4920;49.594;11.022;2024-02-21T02:09:43;14.03;;;5.30;;
9761;SDS011;4920;49.594;11.022;2024-02-21T02:12:12;15.23;;;5.27;;
9761;SDS011;4920;49.594;11.022;2024-02-21T02:14:41;15.50;;;5.30;;
9761;SDS011;4920;49.594;11.022;2024-02-21T02:17:10;13.03;;;5.10;;
9761;SDS011;4920;49.594;11.022;2024-02-21T02:19:38;15.63;;;5.40;;
9761;SDS011;4920;49.594;11.022;2024-02-21T02:22:09;15.90;;;5.73;;
9761;SDS011;4920;49.594;11.022;2024-02-21T02:24:46;17.33;;;5.53;;
9761;SDS011;4920;49.594;11.022;2024-02-21T02:27:15;10.53;;;5.03;;
9761;SDS011;4920;49.594;11.022;2024-02-21T02:29:43;11.97;;;4.60;;
9761;SDS011;4920;49.594;11.022;2024-02-21T02:32:12;15.17;;;5.10;;
9761;SDS011;4920;49.594;11.022;2024-02-21T02:34:42;12.37;;;4.80;;
9761;SDS011;4920;49.594;11.022;2024-02-21T02:37:11;11.13;;;5.20;;
9761;SDS011;4920;49.594;11.022;2024-02-21T02:39:40;13.47;;;4.93;;
9761;SDS011;4920;49.594;11.022;2024-02-21T02:42:10;14.63;;;4.83;;
9761;SDS011;4920;49.594;11.022;2024-02-21T02:44:39;13.00;;;5.00;;
9761;SDS011;4920;49.594;11.022;2024-02-21T02:47:08;12.97;;;4.33;;
9761;SDS011;4920;49.594;11.022;2024-02-21T02:49:37;18.77;;;5.27;;
9761;SDS011;4920;49.594;11.022;2024-02-21T02:52:06;13.03;;;4.73;;
9761;SDS011;4920;49.594;11.022;2024-02-21T02:54:35;13.17;;;5.00;;
9761;SDS011;4920;49.594;11.022;2024-02-21T02:57:04;14.27;;;5.20;;
9761;SDS011;4920;49.594;11.022;2024-02-21T02:59:35;14.77;;;4.77;;
9761;SDS011;4920;49.594;11.022;2024-02-21T03:02:04;12.70;;;5.13;;
9761;SDS011;4920;49.594;11.022;2024-02-21T03:04:33;12.80;;;5.40;;
9761;SDS011;4920;49.594;11.022;2024-02-21T03:07:02;14.73;;;5.17;;
9761;SDS011;4920;49.594;11.022;2024-02-21T03:09:32;15.03;;;5.20;;
9761;SDS011;4920;49.594;11.022;2024-02-21T03:12:00;15.47;;;5.07;;
9761;SDS011;4920;49.594;11.022;2024-02-21T03:14:30;14.93;;;5.37;;
9761;SDS011;4920;49.594;11.022;2024-02-21T03:17:01;12.67;;;5.30;;
9761;SDS011;4920;49.594;11.022;2024-02-21T03:19:30;14.67;;;5.80;;
9761;SDS011;4920;49.594;11.022;2024-02-21T03:21:59;14.47;;;5.23;;
9761;SDS011;4920;49.594;11.022;2024-02-21T03:24:28;14.60;;;5.33;;
9761;SDS011;4920;49.594;11.022;2024-02-21T03:26:59;19.13;;;5.60;;
9761;SDS011;4920;49.594;11.022;2024-02-21T03:29:28;18.43;;;5.53;;
9761;SDS011;4920;49.594;11.022;2024-02-21T03:31:57;12.37;;;5.10;;
9761;SDS011;4920;49.594;11.022;2024-02-21T03:34:27;12.67;;;5.00;;
9761;SDS011;4920;49.594;11.022;2024-02-21T03:36:56;14.50;;;5.93;;
9761;SDS011;4920;49.594;11.022;2024-02-21T03:39:26;14.00;;;5.00;;
9761;SDS011;4920;49.594;11.022;2024-02-21T03:41:55;14.03;;;5.37;;
9761;SDS011;4920;49.594;11.022;2024-02-21T03:44:24;10.43;;;5.27;;
9761;SDS011;4920;49.594;11.022;2024-02-21T03:46:53;13.83;;;5.20;;
9761;SDS011;4920;49.594;11.022;2024-02-21T03:49:22;18.57;;;5.70;;
9761;SDS011;4920;49.594;11.022;2024-02-21T03:51:53;11.83;;;4.97;;
9761;SDS011;4920;49.594;11.022;2024-02-21T03:54:22;13.90;;;5.47;;
9761;SDS011;4920;49.594;11.022;2024-02-21T03:56:51;12.97;;;4.87;;
9761;SDS011;4920;49.594;11.022;2024-02-21T03:59:20;14.87;;;5.50;;
9761;SDS011;4920;49.594;11.022;2024-02-21T04:01:51;16.40;;;5.17;;
9761;SDS011;4920;49.594;11.022;2024-02-21T04:04:20;14.13;;;5.00;;
9761;SDS011;4920;49.594;11.022;2024-02-21T04:06:50;12.00;;;5.20;;
9761;SDS011;4920;49.594;11.022;2024-02-21T04:09:21;16.50;;;5.57;;
9761;SDS011;4920;49.594;11.022;2024-02-21T04:11:50;17.53;;;5.80;;
9761;SDS011;4920;49.594;11.022;2024-02-21T04:14:19;15.43;;;5.43;;
9761;SDS011;4920;49.594;11.022;2024-02-21T04:16:47;15.47;;;6.07;;
9761;SDS011;4920;49.594;11.022;2024-02-21T04:19:16;12.80;;;5.90;;
9761;SDS011;4920;49.594;11.022;2024-02-21T04:21:45;15.37;;;6.03;;
9761;SDS011;4920;49.594;11.022;2024-02-21T04:24:14;15.73;;;5.30;;
9761;SDS011;4920;49.594;11.022;2024-02-21T04:26:44;17.47;;;6.13;;
9761;SDS011;4920;49.594;11.022;2024-02-21T04:29:13;18.23;;;5.53;;
9761;SDS011;4920;49.594;11.022;2024-02-21T04:31:42;16.67;;;5.93;;
9761;SDS011;4920;49.594;11.022;2024-02-21T04:34:12;17.87;;;5.63;;
9761;SDS011;4920;49.594;11.022;2024-02-21T04:36:41;13.33;;;5.63;;
9761;SDS011;4920;49.594;11.022;2024-02-21T04:39:10;17.83;;;6.17;;
9761;SDS011;4920;49.594;11.022;2024-02-21T04:41:39;17.43;;;6.43;;
9761;SDS011;4920;49.594;11.022;2024-02-21T04:44:09;15.97;;;6.07;;
9761;SDS011;4920;49.594;11.022;2024-02-21T04:46:41;18.03;;;6.47;;
9761;SDS011;4920;49.594;11.022;2024-02-21T04:49:10;19.70;;;6.07;;
9761;SDS011;4920;49.594;11.022;2024-02-21T04:51:40;18.90;;;6.47;;
9761;SDS011;4920;49.594;11.022;2024-02-21T04:54:10;15.23;;;5.77;;
9761;SDS011;4920;49.594;11.022;2024-02-21T04:56:39;17.27;;;6.30;;
9761;SDS011;4920;49.594;11.022;2024-02-21T04:59:08;17.77;;;5.80;;
9761;SDS011;4920;49.594;11.022;2024-02-21T05:01:38;18.87;;;6.17;;
9761;SDS011;4920;49.594;11.022;2024-02-21T05:04:07;18.43;;;6.10;;
9761;SDS011;4920;49.594;11.022;2024-02-21T05:06:37;12.57;;;5.87;;
9761;SDS011;4920;49.594;11.022;2024-02-21T05:09:06;18.77;;;6.60;;
9761;SDS011;4920;49.594;11.022;2024-02-21T05:11:36;17.97;;;6.53;;
9761;SDS011;4920;49.594;11.022;2024-02-21T05:14:05;16.07;;;6.33;;
9761;SDS011;4920;49.594;11.022;2024-02-21T05:16:36;16.13;;;6.17;;
9761;SDS011;4920;49.594;11.022;2024-02-21T05:19:06;20.10;;;6.60;;
9761;SDS011;4920;49.594;11.022;2024-02-21T05:21:35;15.73;;;6.33;;
9761;SDS011;4920;49.594;11.022;2024-02-21T05:24:05;18.03;;;5.83;;
9761;SDS011;4920;49.594;11.022;2024-02-21T05:26:34;19.17;;;6.57;;
9761;SDS011;4920;49.594;11.022;2024-02-21T05:29:03;16.30;;;6.87;;
9761;SDS011;4920;49.594;11.022;2024-02-21T05:31:55;15.33;;;5.70;;
9761;SDS011;4920;49.594;11.022;2024-02-21T05:34:25;15.63;;;6.03;;
9761;SDS011;4920;49.594;11.022;2024-02-21T05:36:55;12.20;;;5.90;;
9761;SDS011;4920;49.594;11.022;2024-02-21T05:39:24;17.90;;;6.07;;
9761;SDS011;4920;49.594;11.022;2024-02-21T05:41:53;16.07;;;6.40;;
9761;SDS011;4920;49.594;11.022;2024-02-21T05:44:22;18.60;;;6.60;;
9761;SDS011;4920;49.594;11.022;2024-02-21T05:46:53;20.20;;;6.60;;
9761;SDS011;4920;49.594;11.022;2024-02-21T05:49:22;18.40;;;6.37;;
9761;SDS011;4920;49.594;11.022;2024-02-21T05:51:51;19.37;;;6.37;;
9761;SDS011;4920;49.594;11.022;2024-02-21T05:54:20;16.80;;;6.87;;
9761;SDS011;4920;49.594;11.022;2024-02-21T05:56:49;14.13;;;6.27;;
9761;SDS011;4920;49.594;11.022;2024-02-21T05:59:18;16.53;;;6.37;;
9761;SDS011;4920;49.594;11.022;2024-02-21T06:01:56;17.67;;;6.50;;
9761;SDS011;4920;49.594;11.022;2024-02-21T06:04:26;17.70;;;6.30;;
9761;SDS011;4920;49.594;11.022;2024-02-21T06:06:55;14.67;;;7.00;;
9761;SDS011;4920;49.594;11.022;2024-02-21T06:09:24;17.80;;;7.17;;
9761;SDS011;4920;49.594;11.022;2024-02-21T06:11:53;17.57;;;7.00;;
9761;SDS011;4920;49.594;11.022;2024-02-21T06:14:22;17.10;;;6.83;;
9761;SDS011;4920;49.594;11.022;2024-02-21T06:16:51;12.20;;;6.60;;
9761;SDS011;4920;49.594;11.022;2024-02-21T06:19:21;17.00;;;7.43;;
9761;SDS011;4920;49.594;11.022;2024-02-21T06:21:50;16.10;;;7.00;;
9761;SDS011;4920;49.594;11.022;2024-02-21T06:24:19;20.60;;;7.30;;
9761;SDS011;4920;49.594;11.022;2024-02-21T06:26:48;17.77;;;7.37;;
9761;SDS011;4920;49.594;11.022;2024-02-21T06:29:17;20.80;;;7.40;;
9761;SDS011;4920;49.594;11.022;2024-02-21T06:31:46;17.37;;;7.30;;
9761;SDS011;4920;49.594;11.022;2024-02-21T06:34:15;19.37;;;7.33;;
9761;SDS011;4920;49.594;11.022;2024-02-21T06:36:46;20.37;;;7.67;;
9761;SDS011;4920;49.594;11.022;2024-02-21T06:39:15;18.17;;;7.90;;
9761;SDS011;4920;49.594;11.022;2024-02-21T06:41:44;21.07;;;7.53;;
9761;SDS011;4920;49.594;11.022;2024-02-21T06:44:14;19.13;;;8.53;;
9761;SDS011;4920;49.594;11.022;2024-02-21T06:46:43;17.63;;;7.67;;
9761;SDS011;4920;49.594;11.022;2024-02-21T06:49:12;18.97;;;7.50;;
9761;SDS011;4920;49.594;11.022;2024-02-21T06:51:43;19.27;;;7.90;;
9761;SDS011;4920;49.594;11.022;2024-02-21T06:54:14;17.53;;;7.10;;
9761;SDS011;4920;49.594;11.022;2024-02-21T06:56:43;22.63;;;7.53;;
9761;SDS011;4920;49.594;11.022;2024-02-21T06:59:12;22.10;;;8.30;;
9761;SDS011;4920;49.594;11.022;2024-02-21T07:01:44;19.27;;;7.80;;
9761;SDS011;4920;49.594;11.022;2024-02-21T07:04:14;19.57;;;7.30;;
9761;SDS011;4920;49.594;11.022;2024-02-21T07:06:43;21.30;;;8.07;;
9761;SDS011;4920;49.594;11.022;2024-02-21T07:09:13;16.03;;;7.20;;
9761;SDS011;4920;49.594;11.022;2024-02-21T07:11:42;20.70;;;7.60;;
9761;SDS011;4920;49.594;11.022;2024-02-21T07:14:11;21.17;;;7.13;;
9761;SDS011;4920;49.594;11.022;2024-02-21T07:16:42;22.00;;;8.00;;
9761;SDS011;4920;49.594;11.022;2024-02-21T07:19:11;20.60;;;8.63;;
9761;SDS011;4920;49.594;11.022;2024-02-21T07:21:40;19.10;;;8.27;;
9761;SDS011;4920;49.594;11.022;2024-02-21T07:24:09;17.10;;;7.87;;
9761;SDS011;4920;49.594;11.022;2024-02-21T07:26:42;19.03;;;8.47;;
9761;SDS011;4920;49.594;11.022;2024-02-21T07:29:12;19.90;;;7.87;;
9761;SDS011;4920;49.594;11.022;2024-02-21T07:31:41;18.67;;;7.80;;
9761;SDS011;4920;49.594;11.022;2024-02-21T07:34:10;17.13;;;7.67;;
9761;SDS011;4920;49.594;11.022;2024-02-21T07:36:39;17.53;;;7.57;;
9761;SDS011;4920;49.594;11.022;2024-02-21T07:39:09;12.60;;;6.50;;
9761;SDS011;4920;49.594;11.022;2024-02-21T07:41:38;16.20;;;7.17;;
9761;SDS011;4920;49.594;11.022;2024-02-21T07:44:11;16.90;;;7.17;;
9761;SDS011;4920;49.594;11.022;2024-02-21T07:46:40;14.77;;;6.20;;
9761;SDS011;4920;49.594;11.022;2024-02-21T07:49:09;18.23;;;5.90;;
9761;SDS011;4920;49.594;11.022;2024-02-21T07:51:38;14.57;;;5.77;;
9761;SDS011;4920;49.594;11.022;2024-02-21T07:54:09;13.40;;;5.30;;
9761;SDS011;4920;49.594;11.022;2024-02-21T07:56:43;15.53;;;5.53;;
9761;SDS011;4920;49.594;11.022;2024-02-21T07:59:13;14.67;;;5.40;;
9761;SDS011;4920;49.594;11.022;2024-02-21T08:01:42;10.07;;;4.70;;
9761;SDS011;4920;49.594;11.022;2024-02-21T08:04:13;13.87;;;4.90;;
9761;SDS011;4920;49.594;11.022;2024-02-21T08:06:42;13.30;;;4.63;;
9761;SDS011;4920;49.594;11.022;2024-02-21T08:09:12;11.83;;;5.07;;
9761;SDS011;4920;49.594;11.022;2024-02-21T08:11:41;12.90;;;5.23;;
9761;SDS011;4920;49.594;11.022;2024-02-21T08:14:10;15.30;;;4.77;;
9761;SDS011;4920;49.594;11.022;2024-02-21T08:16:40;13.93;;;4.87;;
9761;SDS011;4920;49.594;11.022;2024-02-21T08:19:10;12.47;;;4.90;;
9761;SDS011;4920;49.594;11.022;2024-02-21T08:21:39;12.43;;;4.30;;
9761;SDS011;4920;49.594;11.022;2024-02-21T08:24:08;11.87;;;4.30;;
9761;SDS011;4920;49.594;11.022;2024-02-21T08:26:39;13.23;;;4.30;;
9761;SDS011;4920;49.594;11.022;2024-02-21T08:29:08;14.30;;;4.37;;
9761;SDS011;4920;49.594;11.022;2024-02-21T08:31:37;10.10;;;3.67;;
9761;SDS011;4920;49.594;11.022;2024-02-21T08:34:08;11.30;;;4.27;;
9761;SDS011;4920;49.594;11.022;2024-02-21T08:36:37;11.00;;;3.77;;
9761;SDS011;4920;49.594;11.022;2024-02-21T08:39:06;10.60;;;4.47;;
9761;SDS011;4920;49.594;11.022;2024-02-21T08:41:36;9.23;;;3.90;;
9761;SDS011;4920;49.594;11.022;2024-02-21T08:44:22;10.97;;;3.87;;
9761;SDS011;4920;49.594;11.022;2024-02-21T08:46:53;10.40;;;3.80;;
9761;SDS011;4920;49.594;11.022;2024-02-21T08:49:25;9.67;;;3.90;;
9761;SDS011;4920;49.594;11.022;2024-02-21T08:52:00;11.47;;;3.83;;
9761;SDS011;4920;49.594;11.022;2024-02-21T08:54:31;10.37;;;3.60;;
9761;SDS011;4920;49.594;11.022;2024-02-21T08:57:01;10.10;;;3.60;;
9761;SDS011;4920;49.594;11.022;2024-02-21T08:59:30;12.30;;;3.70;;
9761;SDS011;4920;49.594;11.022;2024-02-21T09:02:00;9.40;;;3.67;;
9761;SDS011;4920;49.594;11.022;2024-02-21T09:04:31;12.30;;;4.20;;
9761;SDS011;4920;49.594;11.022;2024-02-21T09:07:00;7.13;;;3.63;;
9761;SDS011;4920;49.594;11.022;2024-02-21T09:09:30;11.63;;;3.60;;
9761;SDS011;4920;49.594;11.022;2024-02-21T09:11:59;10.20;;;3.40;;
9761;SDS011;4920;49.594;11.022;2024-02-21T09:14:32;14.00;;;3.83;;
9761;SDS011;4920;49.594;11.022;2024-02-21T09:17:02;8.83;;;3.00;;
9761;SDS011;4920;49.594;11.022;2024-02-21T09:19:33;12.80;;;2.90;;
9761;SDS011;4920;49.594;11.022;2024-02-21T09:22:04;9.90;;;3.47;;
9761;SDS011;4920;49.594;11.022;2024-02-21T09:24:33;11.57;;;2.90;;
9761;SDS011;4920;49.594;11.022;2024-02-21T09:27:02;14.15;;;3.00;;
9761;SDS011;4920;49.594;11.022;2024-02-21T09:29:31;8.13;;;3.30;;
9761;SDS011;4920;49.594;11.022;2024-02-21T09:32:00;9.27;;;2.97;;
9761;SDS011;4920;49.594;11.022;2024-02-21T09:34:30;10.55;;;3.28;;
9761;SDS011;4920;49.594;11.022;2024-02-21T09:37:01;10.90;;;2.80;;
9761;SDS011;4920;49.594;11.022;2024-02-21T09:39:30;11.18;;;3.35;;
9761;SDS011;4920;49.594;11.022;2024-02-21T09:41:59;12.57;;;2.75;;
9761;SDS011;4920;49.594;11.022;2024-02-21T09:44:32;10.03;;;2.90;;
9761;SDS011;4920;49.594;11.022;2024-02-21T09:47:06;10.13;;;3.22;;
9761;SDS011;4920;49.594;11.022;2024-02-21T09:49:39;10.98;;;2.92;;
9761;SDS011;4920;49.594;11.022;2024-02-21T09:52:12;8.55;;;2.80;;
9761;SDS011;4920;49.594;11.022;2024-02-21T09:54:43;12.68;;;3.40;;
9761;SDS011;4920;49.594;11.022;2024-02-21T09:57:13;10.85;;;3.05;;
9761;SDS011;4920;49.594;11.022;2024-02-21T09:59:42;10.67;;;2.97;;
9761;SDS011;4920;49.594;11.022;2024-02-21T10:02:12;9.43;;;2.80;;
9761;SDS011;4920;49.594;11.022;2024-02-21T10:04:41;7.70;;;2.83;;
9761;SDS011;4920;49.594;11.022;2024-02-21T10:07:12;7.10;;;2.65;;
9761;SDS011;4920;49.594;11.022;2024-02-21T10:09:41;7.55;;;2.97;;
9761;SDS011;4920;49.594;11.022;2024-02-21T10:12:12;7.00;;;2.90;;
9761;SDS011;4920;49.594;11.022;2024-02-21T10:14:42;11.20;;;3.00;;
9761;SDS011;4920;49.594;11.022;2024-02-21T10:17:15;7.82;;;3.10;;
9761;SDS011;4920;49.594;11.022;2024-02-21T10:19:46;8.55;;;2.80;;
9761;SDS011;4920;49.594;11.022;2024-02-21T10:22:17;13.43;;;3.30;;
9761;SDS011;4920;49.594;11.022;2024-02-21T10:24:47;12.15;;;3.40;;
9761;SDS011;4920;49.594;11.022;2024-02-21T10:27:16;11.75;;;2.80;;
9761;SDS011;4920;49.594;11.022;2024-02-21T10:29:48;9.60;;;2.92;;
9761;SDS011;4920;49.594;11.022;2024-02-21T10:32:20;9.20;;;3.17;;
9761;SDS011;4920;49.594;11.022;2024-02-21T10:34:49;9.77;;;3.13;;
9761;SDS011;4920;49.594;11.022;2024-02-21T10:37:30;6.95;;;3.08;;
9761;SDS011;4920;49.594;11.022;2024-02-21T10:40:00;8.38;;;2.80;;
9761;SDS011;4920;49.594;11.022;2024-02-21T10:42:30;8.60;;;3.10;;
9761;SDS011;4920;49.594;11.022;2024-02-21T10:45:02;10.20;;;2.88;;
9761;SDS011;4920;49.594;11.022;2024-02-21T10:47:34;7.47;;;2.78;;
9761;SDS011;4920;49.594;11.022;2024-02-21T10:50:07;8.35;;;3.22;;
9761;SDS011;4920;49.594;11.022;2024-02-21T10:52:42;7.93;;;3.35;;
9761;SDS011;4920;49.594;11.022;2024-02-21T10:55:20;10.82;;;3.13;;
9761;SDS011;4920;49.594;11.022;2024-02-21T10:57:54;7.50;;;2.85;;
9761;SDS011;4920;49.594;11.022;2024-02-21T11:00:25;11.95;;;3.13;;
9761;SDS011;4920;49.594;11.022;2024-02-21T11:02:57;8.48;;;2.92;;
9761;SDS011;4920;49.594;11.022;2024-02-21T11:05:28;8.88;;;2.72;;
9761;SDS011;4920;49.594;11.022;2024-02-21T11:07:59;7.60;;;2.97;;
9761;SDS011;4920;49.594;11.022;2024-02-21T11:10:29;10.10;;;3.17;;
9761;SDS011;4920;49.594;11.022;2024-02-21T11:13:05;11.10;;;2.80;;
9761;SDS011;4920;49.594;11.022;2024-02-21T11:15:35;9.30;;;2.72;;
9761;SDS011;4920;49.594;11.022;2024-02-21T11:18:04;10.68;;;2.83;;
9761;SDS011;4920;49.594;11.022;2024-02-21T11:20:34;6.68;;;2.80;;
9761;SDS011;4920;49.594;11.022;2024-02-21T11:23:05;12.27;;;3.08;;
9761;SDS011;4920;49.594;11.022;2024-02-21T11:25:34;7.60;;;2.40;;
9761;SDS011;4920;49.594;11.022;2024-02-21T11:28:04;7.32;;;2.85;;
9761;SDS011;4920;49.594;11.022;2024-02-21T11:30:35;6.57;;;2.42;;
9761;SDS011;4920;49.594;11.022;2024-02-21T11:33:06;6.97;;;2.70;;
9761;SDS011;4920;49.594;11.022;2024-02-21T11:35:36;10.93;;;2.83;;
9761;SDS011;4920;49.594;11.022;2024-02-21T11:38:09;6.80;;;2.45;;
9761;SDS011;4920;49.594;11.022;2024-02-21T11:40:44;8.07;;;2.40;;
9761;SDS011;4920;49.594;11.022;2024-02-21T11:43:15;7.00;;;2.70;;
9761;SDS011;4920;49.594;11.022;2024-02-21T11:45:45;7.70;;;2.40;;
9761;SDS011;4920;49.594;11.022;2024-02-21T11:48:15;10.35;;;2.85;;
9761;SDS011;4920;49.594;11.022;2024-02-21T11:50:52;9.90;;;2.55;;
9761;SDS011;4920;49.594;11.022;2024-02-21T11:53:24;11.95;;;2.58;;
9761;SDS011;4920;49.594;11.022;2024-02-21T11:56:02;9.10;;;2.50;;
9761;SDS011;4920;49.594;11.022;2024-02-21T11:58:31;5.25;;;2.40;;
9761;SDS011;4920;49.594;11.022;2024-02-21T12:01:00;7.10;;;2.50;;
9761;SDS011;4920;49.594;11.022;2024-02-21T12:03:31;6.18;;;2.08;;
9761;SDS011;4920;49.594;11.022;2024-02-21T12:06:02;8.40;;;2.13;;
9761;SDS011;4920;49.594;11.022;2024-02-21T12:08:41;8.75;;;3.17;;
9761;SDS011;4920;49.594;11.022;2024-02-21T12:11:20;7.00;;;2.90;;
9761;SDS011;4920;49.594;11.022;2024-02-21T12:13:59;11.20;;;2.97;;
9761;SDS011;4920;49.594;11.022;2024-02-21T12:16:30;9.13;;;2.50;;
9761;SDS011;4920;49.594;11.022;2024-02-21T12:18:59;5.03;;;2.15;;
9761;SDS011;4920;49.594;11.022;2024-02-21T12:21:29;10.23;;;2.58;;
9761;SDS011;4920;49.594;11.022;2024-02-21T12:24:01;9.52;;;2.40;;
9761;SDS011;4920;49.594;11.022;2024-02-21T12:26:40;5.97;;;2.60;;
9761;SDS011;4920;49.594;11.022;2024-02-21T12:29:09;9.55;;;2.60;;
9761;SDS011;4920;49.594;11.022;2024-02-21T12:31:38;7.35;;;2.53;;
9761;SDS011;4920;49.594;11.022;2024-02-21T12:34:07;8.95;;;2.88;;
9761;SDS011;4920;49.594;11.022;2024-02-21T12:36:40;7.55;;;2.05;;
9761;SDS011;4920;49.594;11.022;2024-02-21T12:39:12;4.68;;;2.00;;
9761;SDS011;4920;49.594;11.022;2024-02-21T12:41:42;9.48;;;2.35;;
9761;SDS011;4920;49.594;11.022;2024-02-21T12:44:11;6.07;;;2.20;;
9761;SDS011;4920;49.594;11.022;2024-02-21T12:46:40;5.68;;;2.17;;
9761;SDS011;4920;49.594;11.022;2024-02-21T12:49:10;6.55;;;2.25;;
9761;SDS011;4920;49.594;11.022;2024-02-21T12:51:39;12.35;;;2.50;;
9761;SDS011;4920;49.594;11.022;2024-02-21T12:54:08;6.53;;;1.92;;
9761;SDS011;4920;49.594;11.022;2024-02-21T12:56:39;6.75;;;2.10;;
9761;SDS011;4920;49.594;11.022;2024-02-21T12:59:08;5.00;;;2.00;;
9761;SDS011;4920;49.594;11.022;2024-02-21T13:01:37;7.15;;;1.90;;
9761;SDS011;4920;49.594;11.022;2024-02-21T13:04:06;7.50;;;2.05;;
9761;SDS011;4920;49.594;11.022;2024-02-21T13:06:35;6.90;;;2.30;;
9761;SDS011;4920;49.594;11.022;2024-02-21T13:09:04;7.03;;;1.92;;
9761;SDS011;4920;49.594;11.022;2024-02-21T13:11:35;4.75;;;2.10;;
9761;SDS011;4920;49.594;11.022;2024-02-21T13:14:06;5.40;;;1.92;;
9761;SDS011;4920;49.594;11.022;2024-02-21T13:16:35;7.25;;;2.05;;
9761;SDS011;4920;49.594;11.022;2024-02-21T13:19:06;6.18;;;2.22;;
9761;SDS011;4920;49.594;11.022;2024-02-21T13:21:37;6.75;;;2.08;;
9761;SDS011;4920;49.594;11.022;2024-02-21T13:24:06;5.68;;;1.92;;
9761;SDS011;4920;49.594;11.022;2024-02-21T13:26:35;5.32;;;1.90;;
9761;SDS011;4920;49.594;11.022;2024-02-21T13:29:03;8.88;;;2.15;;
9761;SDS011;4920;49.594;11.022;2024-02-21T13:31:34;5.45;;;2.00;;
9761;SDS011;4920;49.594;11.022;2024-02-21T13:34:03;5.97;;;2.20;;
9761;SDS011;4920;49.594;11.022;2024-02-21T13:36:35;6.95;;;2.03;;
9761;SDS011;4920;49.594;11.022;2024-02-21T13:39:03;6.30;;;2.10;;
9761;SDS011;4920;49.594;11.022;2024-02-21T13:41:33;7.05;;;1.90;;
9761;SDS011;4920;49.594;11.022;2024-02-21T13:44:03;5.55;;;1.95;;
9761;SDS011;4920;49.594;11.022;2024-02-21T13:46:33;6.65;;;2.05;;
9761;SDS011;4920;49.594;11.022;2024-02-21T13:49:03;6.35;;;1.85;;
9761;SDS011;4920;49.594;11.022;2024-02-21T13:51:34;6.85;;;1.90;;
9761;SDS011;4920;49.594;11.022;2024-02-21T13:54:04;5.85;;;1.95;;
9761;SDS011;4920;49.594;11.022;2024-02-21T13:56:36;9.98;;;1.85;;
9761;SDS011;4920;49.594;11.022;2024-02-21T13:59:05;4.80;;;1.77;;
9761;SDS011;4920;49.594;11.022;2024-02-21T14:01:36;8.40;;;2.00;;
9761;SDS011;4920;49.594;11.022;2024-02-21T14:04:05;4.82;;;1.58;;
9761;SDS011;4920;49.594;11.022;2024-02-21T14:06:34;4.80;;;1.92;;
9761;SDS011;4920;49.594;11.022;2024-02-21T14:09:03;5.03;;;1.80;;
9761;SDS011;4920;49.594;11.022;2024-02-21T14:11:32;9.68;;;1.85;;
9761;SDS011;4920;49.594;11.022;2024-02-21T14:14:01;4.40;;;1.80;;
9761;SDS011;4920;49.594;11.022;2024-02-21T14:16:32;8.05;;;2.08;;
9761;SDS011;4920;49.594;11.022;2024-02-21T14:19:02;6.80;;;1.90;;
9761;SDS011;4920;49.594;11.022;2024-02-21T14:21:31;9.18;;;2.30;;
9761;SDS011;4920;49.594;11.022;2024-02-21T14:24:00;4.88;;;2.03;;
9761;SDS011;4920;49.594;11.022;2024-02-21T14:26:29;5.05;;;1.52;;
9761;SDS011;4920;49.594;11.022;2024-02-21T14:28:59;6.50;;;1.92;;
9761;SDS011;4920;49.594;11.022;2024-02-21T14:31:30;6.10;;;1.75;;
9761;SDS011;4920;49.594;11.022;2024-02-21T14:34:00;4.55;;;1.70;;
9761;SDS011;4920;49.594;11.022;2024-02-21T14:36:31;5.70;;;1.42;;
9761;SDS011;4920;49.594;11.022;2024-02-21T14:39:00;3.80;;;1.70;;
9761;SDS011;4920;49.594;11.022;2024-02-21T14:41:30;6.70;;;1.67;;
9761;SDS011;4920;49.594;11.022;2024-02-21T14:43:58;7.97;;;2.47;;
9761;SDS011;4920;49.594;11.022;2024-02-21T14:46:30;6.03;;;1.80;;
9761;SDS011;4920;49.594;11.022;2024-02-21T14:48:59;5.10;;;2.10;;
9761;SDS011;4920;49.594;11.022;2024-02-21T14:51:29;4.72;;;2.05;;
9761;SDS011;4920;49.594;11.022;2024-02-21T14:54:00;4.88;;;1.90;;
9761;SDS011;4920;49.594;11.022;2024-02-21T14:56:29;5.18;;;1.80;;
9761;SDS011;4920;49.594;11.022;2024-02-21T14:58:59;6.80;;;1.95;;
9761;SDS011;4920;49.594;11.022;2024-02-21T15:01:40;4.53;;;1.73;;
9761;SDS011;4920;49.594;11.022;2024-02-21T15:04:09;5.35;;;1.80;;
9761;SDS011;4920;49.594;11.022;2024-02-21T15:06:41;3.85;;;1.83;;
9761;SDS011;4920;49.594;11.022;2024-02-21T15:09:12;5.72;;;1.80;;